Time;durP1;ratioP1;P1;durP2;ratioP2;P2;SDS_P1;SDS_P2;PMS_P1;PMS_P2;Temp;Humidity;BMP_temperature;BMP_pressure;BME280_temperature;BME280_humidity;BME280_pressure;Samples;Min_cycle;Max_cycle;Signal;HPM_P1;HPM_P2
2023/03/29 00:00:15;;;;;;;5.15;1.98;;;;;;;4.72;65.71;101299.88;6146872;28;20101;-70
2023/03/29 00:03:12;;;;;;;3.55;1.17;;;;;;;4.59;66.30;101275.28;6146785;28;20676;-72
2023/03/29 00:06:09;;;;;;;7.22;1.27;;;;;;;4.55;66.41;101273.78;6144885;28;20034;-71
2023/03/29 00:09:04;;;;;;;2.75;1.75;;;;;;;4.55;66.19;101280.81;6147797;28;20724;-71
2023/03/29 00:12:00;;;;;;;5.72;1.77;;;;;;;4.62;66.19;101288.22;6146755;28;20059;-71
2023/03/29 00:14:56;;;;;;;4.25;1.40;;;;;;;4.64;66.46;101286.38;6146410;28;20060;-71
2023/03/29 00:17:51;;;;;;;6.85;1.25;;;;;;;4.56;66.07;101275.50;6168156;28;20032;-72
2023/03/29 00:20:56;;;;;;;4.47;1.40;;;;;;;4.49;65.83;101263.66;6162732;28;20028;-69
2023/03/29 00:23:51;;;;;;;4.78;1.05;;;;;;;4.65;65.18;101274.91;6158221;28;20039;-72
2023/03/29 00:26:47;;;;;;;5.20;1.40;;;;;;;4.60;65.55;101276.13;6146207;28;20101;-71
2023/03/29 00:29:42;;;;;;;3.28;1.30;;;;;;;4.51;65.86;101253.91;6146666;28;20032;-71
2023/03/29 00:32:37;;;;;;;5.53;1.33;;;;;;;4.56;66.19;101259.72;6153306;28;20047;-71
2023/03/29 00:35:33;;;;;;;2.85;1.30;;;;;;;4.51;66.24;101261.78;6145288;28;20035;-71
2023/03/29 00:38:28;;;;;;;6.40;1.43;;;;;;;4.51;66.88;101259.16;6145916;28;20040;-71
2023/03/29 00:41:24;;;;;;;2.85;1.42;;;;;;;4.50;67.20;101254.00;6145974;28;20434;-71
2023/03/29 00:44:52;;;;;;;7.30;1.63;;;;;;;4.57;66.67;101261.41;6145566;28;20119;-71
2023/03/29 00:47:50;;;;;;;5.95;1.98;;;;;;;4.54;67.13;101266.84;6159631;28;20031;-71
2023/03/29 00:50:53;;;;;;;3.97;1.40;;;;;;;4.60;65.82;101255.97;6170457;28;20088;-71
2023/03/29 00:53:50;;;;;;;5.30;1.50;;;;;;;4.46;65.96;101231.47;6168448;28;20035;-71
2023/03/29 00:56:46;;;;;;;4.65;1.55;;;;;;;4.54;66.86;101245.84;6149232;28;20415;-70
2023/03/29 00:59:43;;;;;;;3.67;1.20;;;;;;;4.48;66.33;101234.88;6144519;28;20392;-70
2023/03/29 01:02:39;;;;;;;5.90;1.40;;;;;;;4.48;66.96;101240.13;6157856;28;20035;-71
2023/03/29 01:05:39;;;;;;;5.95;1.35;;;;;;;4.48;67.24;101243.59;6145052;28;20052;-71
2023/03/29 01:08:39;;;;;;;4.57;1.35;;;;;;;4.39;66.86;101225.78;6145440;28;20408;-71
2023/03/29 01:11:38;;;;;;;4.03;1.58;;;;;;;4.34;66.51;101219.97;6145950;28;20369;-71
2023/03/29 01:14:38;;;;;;;3.95;1.40;;;;;;;4.45;66.98;101224.56;6148233;28;20061;-71
2023/03/29 01:17:33;;;;;;;5.63;1.40;;;;;;;4.49;66.57;101221.66;6169430;28;20464;-71
2023/03/29 01:20:45;;;;;;;7.17;1.53;;;;;;;4.48;66.49;101219.97;6170614;28;20042;-71
2023/03/29 01:23:57;;;;;;;4.75;1.50;;;;;;;4.41;66.39;101196.78;6168807;28;20035;-71
2023/03/29 01:27:12;;;;;;;4.70;1.40;;;;;;;4.48;66.77;101204.22;6159935;28;20028;-71
2023/03/29 01:30:12;;;;;;;5.13;2.00;;;;;;;4.48;65.82;101198.97;6146444;28;20037;-71
2023/03/29 01:33:19;;;;;;;3.75;1.27;;;;;;;4.42;67.31;101204.59;6158002;28;20146;-71
2023/03/29 01:36:36;;;;;;;4.82;0.93;;;;;;;4.32;67.35;101179.00;6160005;28;20111;-71
2023/03/29 01:39:33;;;;;;;8.07;1.42;;;;;;;4.17;67.65;101167.66;6144425;28;20472;-71
2023/03/29 01:43:03;;;;;;;6.05;1.55;;;;;;;4.26;67.96;101182.00;6145579;28;20063;-71
2023/03/29 01:46:15;;;;;;;7.07;1.58;;;;;;;4.19;67.96;101176.28;6144706;28;20089;-71
2023/03/29 01:49:15;;;;;;;5.63;1.35;;;;;;;4.08;67.95;101169.06;6144121;28;20047;-71
2023/03/29 01:52:17;;;;;;;4.25;1.73;;;;;;;4.14;67.84;101173.09;6143752;28;20168;-71
2023/03/29 01:55:13;;;;;;;;;;;;;;;4.16;68.12;101177.31;6145424;28;20499;-71
2023/03/29 01:58:10;;;;;;;2.75;1.20;;;;;;;4.12;67.83;101160.09;6160892;28;19916;-71
2023/03/29 02:01:09;;;;;;;5.53;1.38;;;;;;;4.22;68.56;101170.84;6161291;28;20567;-71
2023/03/29 02:04:09;;;;;;;3.13;1.50;;;;;;;4.24;68.44;101174.22;6143657;28;20043;-71
2023/03/29 02:07:07;;;;;;;8.70;1.85;;;;;;;4.14;68.64;101165.22;6145329;28;20395;-70
2023/03/29 02:10:05;;;;;;;3.65;1.27;;;;;;;4.17;68.86;101170.28;6150871;28;20127;-70
2023/03/29 02:13:00;;;;;;;3.00;1.52;;;;;;;4.18;68.72;101166.72;6149375;28;20028;-71
2023/03/29 02:15:58;;;;;;;7.90;1.70;;;;;;;4.22;68.74;101166.44;6144908;28;20051;-70
2023/03/29 02:18:55;;;;;;;4.88;1.40;;;;;;;4.26;67.66;101166.25;6145319;28;20066;-71
2023/03/29 02:22:05;;;;;;;7.10;1.40;;;;;;;4.22;67.98;101160.34;6143938;28;20040;-72
2023/03/29 02:25:03;;;;;;;2.03;1.13;;;;;;;4.05;69.00;101148.25;6147967;28;20023;-72
2023/03/29 02:27:59;;;;;;;5.82;1.67;;;;;;;4.13;69.38;101148.63;6159669;28;20035;-71
2023/03/29 02:31:19;;;;;;;6.63;1.50;;;;;;;4.27;69.09;101155.66;6148546;28;20495;-71
2023/03/29 02:34:21;;;;;;;5.85;1.60;;;;;;;4.22;69.21;101144.59;6147511;28;20031;-71
2023/03/29 02:37:17;;;;;;;3.65;1.45;;;;;;;4.20;69.79;101130.72;6148238;28;20377;-71
2023/03/29 02:40:14;;;;;;;3.30;1.33;;;;;;;4.26;70.53;101129.50;6150869;28;20036;-71
2023/03/29 02:43:10;;;;;;;6.75;1.50;;;;;;;4.40;70.10;101143.47;6170619;28;20023;-70
2023/03/29 02:46:06;;;;;;;12.65;2.00;;;;;;;4.37;70.39;101129.69;6150328;28;20032;-71
2023/03/29 02:49:04;;;;;;;5.43;1.77;;;;;;;4.42;70.73;101128.47;6148991;28;20028;-71
2023/03/29 02:52:07;;;;;;;3.22;1.35;;;;;;;4.43;72.13;101138.00;6148746;28;20035;-70
2023/03/29 02:55:04;;;;;;;2.58;1.40;;;;;;;4.38;71.27;101118.22;6161578;28;20397;-70
2023/03/29 02:58:06;;;;;;;3.88;1.50;;;;;;;4.39;71.68;101123.41;6147652;28;20492;-71
2023/03/29 03:01:04;;;;;;;4.88;1.33;;;;;;;4.39;72.58;101128.66;6148587;28;20031;-71
2023/03/29 03:04:01;;;;;;;3.42;1.70;;;;;;;4.44;72.96;101123.09;6148286;28;20043;-71
2023/03/29 03:06:56;;;;;;;5.25;1.48;;;;;;;4.38;73.37;101113.81;6150392;28;20508;-71
2023/03/29 03:09:52;;;;;;;3.45;1.42;;;;;;;4.30;74.48;101105.59;6166455;28;20264;-71
2023/03/29 03:12:47;;;;;;;4.68;1.60;;;;;;;4.28;74.89;101104.84;6158993;28;20043;-71
2023/03/29 03:15:47;;;;;;;6.07;1.63;;;;;;;4.29;76.25;101098.66;6147878;28;20479;-71
2023/03/29 03:18:44;;;;;;;3.50;1.60;;;;;;;4.20;76.84;101094.00;6148762;28;20036;-70
2023/03/29 03:21:39;;;;;;;5.65;1.95;;;;;;;4.25;78.43;101107.66;6150524;28;20036;-71
2023/03/29 03:24:35;;;;;;;7.43;1.70;;;;;;;4.15;79.26;101090.81;6147673;28;20036;-71
2023/03/29 03:27:32;;;;;;;5.67;1.80;;;;;;;4.13;79.77;101097.94;6148468;28;20480;-72
2023/03/29 03:30:27;;;;;;;4.90;1.88;;;;;;;4.10;81.32;101106.00;6148170;28;20028;-71
2023/03/29 03:33:23;;;;;;;4.30;1.77;;;;;;;4.00;82.19;101107.50;6147467;28;20038;-71
2023/03/29 03:36:24;;;;;;;7.03;1.92;;;;;;;3.97;83.19;101100.66;6160643;28;20040;-71
2023/03/29 03:39:20;;;;;;;4.13;1.75;;;;;;;3.98;83.33;101104.97;6151975;28;20107;-71
2023/03/29 03:42:15;;;;;;;5.65;2.10;;;;;;;3.93;83.93;101096.56;6147947;28;20088;-71
2023/03/29 03:45:11;;;;;;;7.27;2.87;;;;;;;3.88;84.10;101087.28;6146737;28;20040;-71
2023/03/29 03:48:06;;;;;;;4.37;1.97;;;;;;;3.78;85.26;101071.25;6150922;28;20750;-71
2023/03/29 03:51:02;;;;;;;6.10;2.10;;;;;;;3.75;85.16;101075.84;6147693;28;20493;-71
2023/03/29 03:53:57;;;;;;;4.95;2.05;;;;;;;3.67;85.76;101080.72;6155669;28;20080;-71
2023/03/29 03:56:53;;;;;;;8.57;2.50;;;;;;;3.61;86.75;101082.75;6149425;28;20089;-71
2023/03/29 03:59:48;;;;;;;5.70;2.17;;;;;;;3.50;87.38;101074.72;6170370;28;20036;-71
2023/03/29 04:02:45;;;;;;;4.97;2.57;;;;;;;3.50;87.72;101082.59;6161623;28;20028;-71
2023/03/29 04:05:41;;;;;;;5.30;1.98;;;;;;;3.40;88.54;101065.72;6169301;28;20480;-71
2023/03/29 04:08:37;;;;;;;6.55;2.28;;;;;;;3.39;89.73;101071.06;6155108;28;20062;-70
2023/03/29 04:11:32;;;;;;;4.90;2.42;;;;;;;3.45;89.29;101082.00;6171190;28;20742;-71
2023/03/29 04:14:27;;;;;;;7.18;2.13;;;;;;;3.40;89.92;101057.84;6153207;28;20032;-71
2023/03/29 04:17:23;;;;;;;8.53;2.93;;;;;;;3.33;90.78;101051.31;6149966;28;20043;-70
2023/03/29 04:20:18;;;;;;;8.03;2.43;;;;;;;3.37;91.44;101063.25;6154328;28;20464;-71
2023/03/29 04:23:14;;;;;;;7.40;2.75;;;;;;;3.40;92.56;101059.63;6151296;28;20035;-71
2023/03/29 04:26:09;;;;;;;9.20;3.00;;;;;;;3.29;92.77;101047.16;6158640;28;20031;-71
2023/03/29 04:29:04;;;;;;;7.53;3.03;;;;;;;3.23;92.91;101042.31;6146357;28;20407;-70
2023/03/29 04:31:59;;;;;;;7.78;2.78;;;;;;;3.18;92.93;101035.66;6152849;28;20106;-71
2023/03/29 04:34:55;;;;;;;9.30;3.10;;;;;;;3.31;92.69;101047.09;6148424;28;20048;-70
2023/03/29 04:37:53;;;;;;;8.48;3.58;;;;;;;3.19;93.14;101025.06;6157500;28;20365;-71
2023/03/29 04:40:49;;;;;;;7.40;2.85;;;;;;;3.25;93.05;101029.94;6169127;28;20031;-70
2023/03/29 04:43:45;;;;;;;7.10;3.40;;;;;;;3.34;93.19;101034.63;6145925;28;20036;-70
2023/03/29 04:46:41;;;;;;;7.32;3.00;;;;;;;3.35;93.91;101032.84;6158345;28;20046;-70
2023/03/29 04:49:36;;;;;;;8.43;3.45;;;;;;;3.43;93.31;101044.56;6161259;28;20042;-71
2023/03/29 04:52:32;;;;;;;7.03;3.30;;;;;;;3.46;93.27;101039.13;6170930;28;20035;-71
2023/03/29 04:55:28;;;;;;;8.10;3.20;;;;;;;3.51;94.28;101050.19;6146815;28;20060;-71
2023/03/29 04:58:24;;;;;;;10.30;3.53;;;;;;;3.43;94.02;101028.84;6154283;28;20392;-71
2023/03/29 05:01:19;;;;;;;10.32;3.95;;;;;;;3.46;95.02;101039.13;6153874;28;20115;-71
2023/03/29 05:04:14;;;;;;;7.77;3.33;;;;;;;3.46;95.02;101044.38;6167798;28;20050;-71
2023/03/29 05:07:11;;;;;;;10.83;3.90;;;;;;;3.55;95.54;101041.22;6147812;28;20036;-70
2023/03/29 05:10:08;;;;;;;7.93;3.97;;;;;;;3.46;95.49;101031.28;6146016;28;20411;-71
2023/03/29 05:13:03;;;;;;;10.52;4.05;;;;;;;3.47;95.95;101032.97;6146275;28;20032;-70
2023/03/29 05:16:00;;;;;;;10.33;4.47;;;;;;;3.55;96.17;101038.59;6152009;28;20028;-71
2023/03/29 05:18:56;;;;;;;10.52;4.43;;;;;;;3.57;96.31;101036.72;6159683;28;20028;-71
2023/03/29 05:21:51;;;;;;;9.10;3.75;;;;;;;3.60;96.79;101036.53;6144893;28;20040;-71
2023/03/29 05:24:47;;;;;;;9.25;4.57;;;;;;;3.60;97.19;101026.03;6144913;28;20035;-71
2023/03/29 05:27:44;;;;;;;11.95;4.68;;;;;;;3.69;96.97;101034.28;6145855;28;20481;-71
2023/03/29 05:30:40;;;;;;;9.43;4.28;;;;;;;3.70;96.34;101026.28;6143097;28;20059;-70
2023/03/29 05:33:35;;;;;;;9.23;4.35;;;;;;;3.64;96.49;101016.22;6141096;28;20089;-71
2023/03/29 05:36:31;;;;;;;12.37;5.13;;;;;;;3.75;97.30;101031.28;6144122;28;20024;-71
2023/03/29 05:39:26;;;;;;;12.05;4.47;;;;;;;3.76;96.85;101025.06;6168810;28;20506;-70
2023/03/29 05:42:22;;;;;;;9.33;4.43;;;;;;;3.78;97.12;101015.34;6144832;28;20169;-71
2023/03/29 05:45:18;;;;;;;11.68;5.63;;;;;;;3.84;97.10;101021.03;6135957;28;20032;-70
2023/03/29 05:48:13;;;;;;;11.23;4.47;;;;;;;3.73;97.49;101001.66;6146864;28;20044;-71
2023/03/29 05:51:09;;;;;;;12.77;4.67;;;;;;;3.80;97.34;101000.34;6151990;28;20483;-71
2023/03/29 05:54:04;;;;;;;10.77;4.78;;;;;;;3.94;96.53;101018.69;6164818;28;20209;-71
2023/03/29 05:57:00;;;;;;;13.00;5.67;;;;;;;3.92;97.26;101015.31;6144919;28;20067;-70
2023/03/29 05:59:55;;;;;;;11.63;5.50;;;;;;;3.85;97.21;100985.16;6143675;28;20266;-71
2023/03/29 06:02:55;;;;;;;11.45;5.82;;;;;;;3.91;96.77;101001.38;6159412;28;20038;-71
2023/03/29 06:05:58;;;;;;;13.50;5.50;;;;;;;3.98;96.17;101004.44;6163586;28;20058;-71
2023/03/29 06:08:54;;;;;;;9.55;4.80;;;;;;;4.04;95.95;100998.81;6166817;28;20059;-71
2023/03/29 06:11:50;;;;;;;12.55;5.18;;;;;;;4.16;96.04;101014.59;6151939;28;20039;-70
2023/03/29 06:14:45;;;;;;;9.97;4.83;;;;;;;4.13;95.31;101003.47;6148520;28;20556;-72
2023/03/29 06:17:41;;;;;;;7.83;3.93;;;;;;;4.19;95.50;101003.06;6148227;28;20296;-71
2023/03/29 06:20:36;;;;;;;11.23;5.05;;;;;;;4.26;95.16;101014.03;6152224;28;20044;-71
2023/03/29 06:23:31;;;;;;;12.80;5.63;;;;;;;4.20;94.34;100991.63;6148855;28;20032;-71
2023/03/29 06:26:27;;;;;;;16.58;5.50;;;;;;;4.25;94.82;100991.34;6148831;28;20578;-70
2023/03/29 06:29:22;;;;;;;12.83;4.67;;;;;;;4.30;94.06;100995.34;6147840;28;20044;-71
2023/03/29 06:32:17;;;;;;;11.87;5.90;;;;;;;4.40;93.53;101001.72;6148603;28;20027;-70
2023/03/29 06:35:13;;;;;;;13.90;5.72;;;;;;;4.42;93.54;101005.06;6149332;28;20036;-70
2023/03/29 06:38:10;;;;;;;9.95;5.13;;;;;;;4.33;93.84;100989.91;6149612;28;20040;-71
2023/03/29 06:41:06;;;;;;;11.45;5.35;;;;;;;4.43;93.58;100988.34;6146588;28;20114;-71
2023/03/29 06:44:02;;;;;;;10.30;5.20;;;;;;;4.60;93.10;101000.38;6148385;28;20050;-71
2023/03/29 06:46:59;;;;;;;9.52;4.50;;;;;;;4.61;92.45;100995.03;6147913;28;20043;-70
2023/03/29 06:49:54;;;;;;;12.90;5.28;;;;;;;4.68;91.69;100996.31;6157142;28;20036;-71
2023/03/29 06:52:49;;;;;;;13.60;5.43;;;;;;;4.87;90.75;100995.91;6148540;28;20400;-71
2023/03/29 06:55:45;;;;;;;10.73;5.57;;;;;;;4.83;90.36;100999.72;6147762;28;20060;-71
2023/03/29 06:58:40;;;;;;;8.70;4.77;;;;;;;5.03;91.12;101007.06;6148510;28;20050;-70
2023/03/29 07:01:36;;;;;;;10.23;4.67;;;;;;;5.08;89.48;100983.13;6148513;28;20032;-71
2023/03/29 07:04:31;;;;;;;9.10;3.95;;;;;;;5.06;90.35;100985.00;6147505;28;20032;-70
2023/03/29 07:07:36;;;;;;;11.48;4.70;;;;;;;5.25;90.02;100996.78;6149549;28;20035;-71
2023/03/29 07:10:37;;;;;;;16.40;5.32;;;;;;;5.32;89.19;100981.44;6148535;28;20036;-71
2023/03/29 07:13:32;;;;;;;9.73;4.50;;;;;;;5.62;88.03;101003.00;6146582;28;20039;-71
2023/03/29 07:16:27;;;;;;;8.50;5.03;;;;;;;5.69;86.48;100984.97;6158946;28;20031;-71
2023/03/29 07:19:24;;;;;;;8.47;3.70;;;;;;;5.68;86.88;100992.00;6153273;28;20487;-71
2023/03/29 07:22:19;;;;;;;8.52;4.53;;;;;;;6.06;86.21;100991.13;6154164;28;20032;-71
2023/03/29 07:25:15;;;;;;;10.77;4.00;;;;;;;6.35;84.46;100979.31;6168539;28;20036;-71
2023/03/29 07:28:10;;;;;;;11.88;4.55;;;;;;;6.21;84.36;100974.22;6157545;28;20023;-71
2023/03/29 07:31:09;;;;;;;7.47;3.17;;;;;;;6.63;83.46;100994.78;6157177;28;20036;-71
2023/03/29 07:34:05;;;;;;;7.28;3.78;;;;;;;6.58;82.18;100986.34;6144766;28;20446;-71
2023/03/29 07:37:00;;;;;;;8.10;3.97;;;;;;;6.70;81.44;100989.88;6148876;28;20020;-70
2023/03/29 07:39:56;;;;;;;8.93;3.60;;;;;;;6.44;81.84;100994.44;6154437;28;20130;-71
2023/03/29 07:42:53;;;;;;;9.27;3.57;;;;;;;6.44;82.28;101000.53;6150049;28;20098;-72
2023/03/29 07:45:49;;;;;;;10.65;3.38;;;;;;;6.48;81.48;100967.75;6162750;28;20372;-72
2023/03/29 07:48:45;;;;;;;9.15;3.72;;;;;;;6.85;81.38;100983.47;6157405;28;20576;-71
2023/03/29 07:51:41;;;;;;;9.35;3.70;;;;;;;6.76;80.60;100965.69;6155617;27;20027;-72
2023/03/29 07:54:36;;;;;;;7.88;4.13;;;;;;;6.92;79.64;100968.84;6146277;28;20408;-72
2023/03/29 07:57:32;;;;;;;8.13;3.90;;;;;;;6.69;80.12;100967.09;6147982;28;20049;-71
2023/03/29 08:00:27;;;;;;;7.40;3.77;;;;;;;6.76;80.68;100984.16;6155657;28;20063;-71
2023/03/29 08:03:22;;;;;;;7.80;3.30;;;;;;;6.91;80.84;100973.28;6146213;28;20293;-72
2023/03/29 08:06:18;;;;;;;8.45;3.83;;;;;;;7.31;79.03;100988.72;6148183;28;20036;-72
2023/03/29 08:09:13;;;;;;;10.77;3.33;;;;;;;7.25;78.68;100992.66;6151454;28;20043;-72
2023/03/29 08:12:08;;;;;;;7.70;2.93;;;;;;;7.37;78.16;100977.66;6146614;28;20028;-71
2023/03/29 08:15:04;;;;;;;8.77;4.00;;;;;;;7.38;76.81;100960.88;6145661;28;20511;-71
2023/03/29 08:18:00;;;;;;;8.13;3.28;;;;;;;7.30;77.97;100994.94;6170377;28;20071;-72
2023/03/29 08:20:55;;;;;;;6.70;3.60;;;;;;;7.41;78.02;100979.97;6159509;28;20047;-72
2023/03/29 08:23:50;;;;;;;5.07;2.90;;;;;;;7.33;77.24;100976.22;6149097;28;20063;-71
2023/03/29 08:26:47;;;;;;;6.60;3.13;;;;;;;7.46;77.14;100985.72;6157362;28;20062;-71
2023/03/29 08:29:42;;;;;;;5.95;3.08;;;;;;;7.31;76.80;100981.59;6156129;28;20309;-72
2023/03/29 08:32:38;;;;;;;9.03;3.93;;;;;;;7.26;77.35;100982.91;6145175;28;20032;-71
2023/03/29 08:35:33;;;;;;;8.23;3.50;;;;;;;7.26;77.12;100972.38;6153174;28;20031;-71
2023/03/29 08:38:29;;;;;;;6.70;3.33;;;;;;;7.46;76.38;100984.88;6161230;28;20039;-70
2023/03/29 08:41:35;;;;;;;7.22;3.10;;;;;;;7.54;76.69;100993.03;6145918;28;20274;-72
2023/03/29 08:44:40;;;;;;;8.88;4.03;;;;;;;7.74;75.18;100984.41;6144640;28;20032;-70
2023/03/29 08:47:42;;;;;;;9.85;3.10;;;;;;;8.10;74.91;100991.19;6144217;28;20038;-71
2023/03/29 08:50:42;;;;;;;7.70;3.55;;;;;;;7.77;74.99;100979.69;6180207;27;20142;-71
2023/03/29 08:53:43;;;;;;;;;;;;;;;8.02;74.90;100986.50;6155123;28;20055;-71
2023/03/29 08:56:39;;;;;;;7.07;2.70;;;;;;;7.96;75.05;100984.38;6150574;28;20008;-70
2023/03/29 08:59:36;;;;;;;6.60;3.20;;;;;;;8.16;74.02;100991.50;6158311;28;20621;-71
2023/03/29 09:02:33;;;;;;;6.30;3.20;;;;;;;8.08;73.66;100993.09;6150877;28;20043;-71
2023/03/29 09:05:33;;;;;;;5.78;2.83;;;;;;;7.92;74.52;100980.28;6151066;28;20047;-71
2023/03/29 09:08:28;;;;;;;5.75;2.83;;;;;;;8.08;75.03;100966.69;6151770;28;20479;-71
2023/03/29 09:11:23;;;;;;;7.68;3.40;;;;;;;8.04;75.02;100987.25;6170248;28;20119;-71
2023/03/29 09:14:24;;;;;;;7.90;3.50;;;;;;;8.09;74.92;100987.72;6147159;28;20040;-70
2023/03/29 09:17:26;;;;;;;7.57;3.38;;;;;;;8.49;75.02;100987.97;6145218;28;20093;-70
2023/03/29 09:20:30;;;;;;;6.53;2.97;;;;;;;8.79;74.42;100980.16;6148200;28;20050;-70
2023/03/29 09:23:33;;;;;;;6.97;3.17;;;;;;;8.82;73.11;100979.06;6142394;28;20078;-72
2023/03/29 09:26:40;;;;;;;8.75;2.90;;;;;;;8.99;72.80;100965.25;6175932;27;20138;-70
2023/03/29 09:30:01;;;;;;;5.97;2.70;;;;;;;9.03;71.84;100956.06;6142178;28;20099;-71
2023/03/29 09:33:02;;;;;;;6.22;2.97;;;;;;;8.77;71.29;100966.22;6152733;28;20138;-71
2023/03/29 09:36:17;;;;;;;6.70;3.08;;;;;;;8.91;72.02;100959.78;6147891;28;20035;-70
2023/03/29 09:39:13;;;;;;;9.52;3.40;;;;;;;8.84;72.03;100948.88;6169045;28;20039;-72
2023/03/29 09:42:11;;;;;;;7.18;3.38;;;;;;;8.72;71.72;100951.72;6180610;28;20031;-71
2023/03/29 09:45:07;;;;;;;7.80;3.53;;;;;;;8.80;72.35;100954.56;6173127;28;20166;-71
2023/03/29 09:48:10;;;;;;;6.00;2.70;;;;;;;8.90;71.11;100944.88;6167194;28;20609;-71
2023/03/29 09:51:06;;;;;;;7.10;2.78;;;;;;;8.32;72.58;100954.16;6151318;28;20059;-71
2023/03/29 09:54:02;;;;;;;6.45;2.97;;;;;;;8.26;72.59;100954.66;6150012;28;20606;-72
2023/03/29 09:56:58;;;;;;;8.32;2.60;;;;;;;8.43;72.68;100948.81;6150626;28;20028;-70
2023/03/29 09:59:53;;;;;;;7.65;3.42;;;;;;;7.99;73.58;100956.88;6154334;28;20119;-70
2023/03/29 10:02:51;;;;;;;6.05;3.08;;;;;;;8.16;74.76;100943.97;6165176;28;20027;-70
2023/03/29 10:05:48;;;;;;;6.97;3.28;;;;;;;8.23;73.12;100961.03;6147692;28;20035;-71
2023/03/29 10:08:49;;;;;;;7.45;2.90;;;;;;;7.92;74.55;100961.81;6147733;28;20030;-70
2023/03/29 10:11:47;;;;;;;6.95;3.17;;;;;;;8.01;74.78;100939.94;6143017;28;20404;-72
2023/03/29 10:14:48;;;;;;;6.75;3.25;;;;;;;8.39;74.59;100950.06;6132682;28;20035;-70
2023/03/29 10:17:44;;;;;;;8.07;3.33;;;;;;;8.27;73.66;100933.41;6131210;28;20512;-71
2023/03/29 10:20:40;;;;;;;8.35;3.40;;;;;;;8.48;74.20;100932.59;6162450;28;20035;-71
2023/03/29 10:23:36;;;;;;;7.53;3.20;;;;;;;8.68;73.36;100935.25;6173581;28;20104;-70
2023/03/29 10:26:31;;;;;;;8.70;3.22;;;;;;;8.72;73.33;100941.13;6160267;28;20097;-70
2023/03/29 10:29:35;;;;;;;8.52;3.00;;;;;;;8.64;74.12;100923.25;6148106;28;20044;-70
2023/03/29 10:32:32;;;;;;;7.20;2.92;;;;;;;8.91;75.51;100930.69;6140321;28;20024;-73
2023/03/29 10:35:38;;;;;;;8.45;3.03;;;;;;;9.13;75.55;100925.22;6130484;28;20035;-72
2023/03/29 10:38:35;;;;;;;7.95;3.40;;;;;;;9.23;74.29;100926.13;6139755;28;20028;-69
2023/03/29 10:41:32;;;;;;;7.85;3.47;;;;;;;9.41;72.42;100906.00;6135569;27;20538;-70
2023/03/29 10:44:30;;;;;;;9.02;3.38;;;;;;;9.52;71.55;100915.63;6157339;28;20062;-70
2023/03/29 10:47:32;;;;;;;7.80;3.85;;;;;;;9.43;71.06;100916.47;6158979;27;20027;-70
2023/03/29 10:50:34;;;;;;;6.47;3.08;;;;;;;9.46;71.23;100917.00;6188592;27;20369;-71
2023/03/29 10:53:31;;;;;;;9.60;2.75;;;;;;;9.70;71.18;100923.78;6183996;27;20036;-70
2023/03/29 10:56:39;;;;;;;7.20;3.15;;;;;;;9.84;71.34;100931.34;6188980;27;20032;-71
2023/03/29 11:00:05;;;;;;;6.25;2.72;;;;;;;9.65;71.29;100918.88;6158785;27;20031;-71
2023/03/29 11:03:26;;;;;;;4.53;2.58;;;;;;;9.77;71.32;100920.47;6174212;27;20480;-72
2023/03/29 11:06:30;;;;;;;11.05;3.05;;;;;;;9.91;72.34;100900.69;6150471;28;20134;-70
2023/03/29 11:09:41;;;;;;;5.47;2.60;;;;;;;10.19;71.81;100912.34;6154826;28;20031;-72
2023/03/29 11:12:54;;;;;;;6.97;3.10;;;;;;;10.48;71.22;100910.53;6172662;28;20106;-71
2023/03/29 11:16:08;;;;;;;5.60;2.55;;;;;;;10.97;68.89;100898.84;6173617;27;20492;-71
2023/03/29 11:19:16;;;;;;;7.18;2.75;;;;;;;10.81;68.85;100907.41;6172499;28;20042;-72
2023/03/29 11:22:34;;;;;;;5.10;2.65;;;;;;;10.91;68.80;100902.06;6168806;27;20122;-71
2023/03/29 11:25:32;;;;;;;5.78;2.67;;;;;;;10.74;68.97;100906.28;6162053;27;20092;-71
2023/03/29 11:28:49;;;;;;;5.72;2.92;;;;;;;10.81;69.89;100880.03;6174980;27;20027;-72
2023/03/29 11:32:11;;;;;;;4.95;2.20;;;;;;;11.47;67.43;100876.28;6177664;27;20089;-71
2023/03/29 11:35:30;;;;;;;8.10;2.95;;;;;;;11.04;67.57;100884.00;6139579;27;20051;-71
2023/03/29 11:38:45;;;;;;;4.68;2.50;;;;;;;10.80;69.69;100867.75;6172251;28;20073;-71
2023/03/29 11:41:42;;;;;;;7.10;2.80;;;;;;;10.92;69.03;100883.38;6173287;27;20441;-72
2023/03/29 11:44:39;;;;;;;5.32;2.58;;;;;;;10.58;69.65;100880.34;6182352;27;20115;-71
2023/03/29 11:47:36;;;;;;;7.22;2.70;;;;;;;10.23;71.52;100885.41;6188308;27;20019;-72
2023/03/29 11:50:41;;;;;;;9.20;2.83;;;;;;;10.22;73.05;100883.72;6171968;28;20027;-71
2023/03/29 11:53:49;;;;;;;7.97;2.83;;;;;;;10.27;72.63;100883.31;6153918;28;20040;-71
2023/03/29 11:56:49;;;;;;;5.78;2.60;;;;;;;10.50;71.90;100890.84;6170478;27;20036;-72
2023/03/29 11:59:57;;;;;;;5.47;2.67;;;;;;;10.40;72.51;100876.75;6175986;27;20528;-71
2023/03/29 12:03:10;;;;;;;4.57;2.67;;;;;;;10.58;71.76;100880.34;6174416;28;20057;-71
2023/03/29 12:06:13;;;;;;;8.02;2.97;;;;;;;10.41;73.37;100883.72;6162019;28;20523;-70
2023/03/29 12:09:26;;;;;;;6.00;2.78;;;;;;;10.42;73.61;100885.41;6153036;27;20032;-71
2023/03/29 12:12:26;;;;;;;5.93;3.08;;;;;;;10.18;75.41;100862.94;6158919;27;20377;-71
2023/03/29 12:15:23;;;;;;;;;;;;;;;10.30;76.17;100875.09;6153160;28;20547;-71
2023/03/29 12:18:31;;;;;;;5.43;2.70;;;;;;;10.66;75.41;100867.22;6153137;28;19922;-72
2023/03/29 12:21:28;;;;;;;5.18;2.75;;;;;;;10.46;76.67;100870.88;6174412;27;20031;-72
2023/03/29 12:24:26;;;;;;;8.68;3.95;;;;;;;10.64;76.16;100853.28;6175829;27;20031;-71
2023/03/29 12:27:26;;;;;;;9.20;4.55;;;;;;;10.76;75.35;100861.91;6185756;27;20491;-71
2023/03/29 12:30:40;;;;;;;8.23;4.05;;;;;;;11.10;74.63;100846.28;6162167;27;20585;-72
2023/03/29 12:34:00;;;;;;;10.30;4.32;;;;;;;11.24;72.83;100845.81;6174259;27;20027;-72
2023/03/29 12:37:13;;;;;;;13.65;5.15;;;;;;;11.40;73.42;100856.63;6170433;28;20043;-71
2023/03/29 12:40:14;;;;;;;9.60;5.07;;;;;;;11.59;72.39;100845.06;6155295;27;20115;-72
2023/03/29 12:43:25;;;;;;;10.15;4.60;;;;;;;11.77;72.15;100846.78;6171425;27;20084;-71
2023/03/29 12:46:26;;;;;;;9.88;4.18;;;;;;;11.68;71.23;100818.44;6171357;28;20092;-72
2023/03/29 12:49:27;;;;;;;9.73;4.72;;;;;;;12.03;71.08;100827.44;6180342;27;20072;-72
2023/03/29 12:52:25;;;;;;;7.90;4.40;;;;;;;12.22;69.73;100829.94;6162304;27;20047;-72
2023/03/29 12:55:47;;;;;;;8.98;4.50;;;;;;;12.06;70.28;100817.34;6181372;27;20483;-72
2023/03/29 12:58:51;;;;;;;9.30;4.10;;;;;;;12.11;69.77;100815.06;6178378;27;20114;-72
2023/03/29 13:02:12;;;;;;;10.55;3.95;;;;;;;12.41;70.46;100827.09;6180239;27;20472;-72
2023/03/29 13:05:28;;;;;;;9.93;3.50;;;;;;;12.65;69.67;100816.63;6170362;27;20700;-72
2023/03/29 13:08:32;;;;;;;7.32;3.35;;;;;;;13.01;67.93;100819.97;6176921;27;20418;-73
2023/03/29 13:11:34;;;;;;;7.32;3.17;;;;;;;13.15;68.46;100806.09;6175457;27;20041;-73
2023/03/29 13:14:32;;;;;;;7.30;3.25;;;;;;;12.71;67.16;100813.34;6173182;27;20027;-72
2023/03/29 13:17:51;;;;;;;6.00;3.10;;;;;;;12.59;69.84;100813.72;6171059;27;20120;-72
2023/03/29 13:20:58;;;;;;;9.30;3.67;;;;;;;12.45;69.85;100815.13;6159967;28;20027;-73
2023/03/29 13:23:56;;;;;;;7.18;3.25;;;;;;;12.41;70.69;100813.78;6176285;27;20027;-73
2023/03/29 13:27:04;;;;;;;8.15;3.47;;;;;;;12.50;70.85;100812.88;6175870;27;20115;-72
2023/03/29 13:30:20;;;;;;;7.05;3.42;;;;;;;12.23;71.20;100792.53;6176141;28;20092;-72
2023/03/29 13:33:41;;;;;;;8.50;3.65;;;;;;;12.20;72.63;100802.66;6161033;28;20035;-72
2023/03/29 13:37:19;;;;;;;7.55;3.95;;;;;;;11.96;73.53;100807.78;6155148;28;20035;-71
2023/03/29 13:40:27;;;;;;;6.65;3.25;;;;;;;12.00;74.15;100793.19;6149398;28;20107;-72
2023/03/29 13:43:32;;;;;;;7.13;3.30;;;;;;;12.17;74.19;100803.81;6173562;28;20034;-72
2023/03/29 13:46:40;;;;;;;7.05;3.20;;;;;;;12.28;74.54;100794.75;6167574;28;20048;-73
2023/03/29 13:49:35;;;;;;;6.95;2.75;;;;;;;12.27;74.45;100787.75;6176889;28;20070;-72
2023/03/29 13:52:40;;;;;;;6.93;3.20;;;;;;;12.04;75.37;100792.72;6159015;28;20045;-72
2023/03/29 13:55:47;;;;;;;6.68;2.65;;;;;;;11.67;76.33;100784.03;6159939;28;20273;-71
2023/03/29 13:58:46;;;;;;;5.38;2.70;;;;;;;11.33;78.11;100786.53;6189711;27;20023;-72
2023/03/29 14:01:52;;;;;;;6.72;2.67;;;;;;;11.12;79.43;100800.03;6178044;28;20161;-72
2023/03/29 14:04:49;;;;;;;7.28;2.97;;;;;;;11.03;81.00;100784.19;6179644;28;20118;-71